sensor_id;sensor_type;location;lat;lon;timestamp;temperature;humidity
50544;DHT22;41176;44.032;20.900;2022-12-18T00:00:43;5.10;99.90
50544;DHT22;41176;44.032;20.900;2022-12-18T00:03:09;5.00;99.90
50544;DHT22;41176;44.032;20.900;2022-12-18T00:05:35;5.00;99.90
50544;DHT22;41176;44.032;20.900;2022-12-18T00:08:02;5.00;99.90
50544;DHT22;41176;44.032;20.900;2022-12-18T00:10:28;5.10;99.90
50544;DHT22;41176;44.032;20.900;2022-12-18T00:12:54;5.10;99.90
50544;DHT22;41176;44.032;20.900;2022-12-18T00:15:20;5.10;99.90
50544;DHT22;41176;44.032;20.900;2022-12-18T00:17:46;5.10;99.90
50544;DHT22;41176;44.032;20.900;2022-12-18T00:20:11;5.10;99.90
50544;DHT22;41176;44.032;20.900;2022-12-18T00:22:37;5.10;99.90
50544;DHT22;41176;44.032;20.900;2022-12-18T00:25:03;5.00;99.90
50544;DHT22;41176;44.032;20.900;2022-12-18T00:27:29;5.00;99.90
50544;DHT22;41176;44.032;20.900;2022-12-18T00:29:55;5.00;99.90
50544;DHT22;41176;44.032;20.900;2022-12-18T00:32:20;4.90;99.90
50544;DHT22;41176;44.032;20.900;2022-12-18T00:34:46;4.90;99.90
50544;DHT22;41176;44.032;20.900;2022-12-18T00:37:12;4.80;99.90
50544;DHT22;41176;44.032;20.900;2022-12-18T00:39:37;4.80;99.90
50544;DHT22;41176;44.032;20.900;2022-12-18T00:42:03;4.80;99.90
50544;DHT22;41176;44.032;20.900;2022-12-18T00:44:47;4.80;99.90
50544;DHT22;41176;44.032;20.900;2022-12-18T00:47:13;4.80;99.90
50544;DHT22;41176;44.032;20.900;2022-12-18T00:49:38;4.80;99.90
50544;DHT22;41176;44.032;20.900;2022-12-18T00:52:04;4.80;99.90
50544;DHT22;41176;44.032;20.900;2022-12-18T00:54:30;4.80;99.90
50544;DHT22;41176;44.032;20.900;2022-12-18T00:56:56;4.70;99.90
50544;DHT22;41176;44.032;20.900;2022-12-18T00:59:21;4.70;99.90
50544;DHT22;41176;44.032;20.900;2022-12-18T01:01:47;4.70;99.90
50544;DHT22;41176;44.032;20.900;2022-12-18T01:04:13;4.80;99.90
50544;DHT22;41176;44.032;20.900;2022-12-18T01:06:40;4.80;99.90
50544;DHT22;41176;44.032;20.900;2022-12-18T01:09:05;4.70;99.90
50544;DHT22;41176;44.032;20.900;2022-12-18T01:11:31;4.70;99.90
50544;DHT22;41176;44.032;20.900;2022-12-18T01:14:00;4.80;99.90
50544;DHT22;41176;44.032;20.900;2022-12-18T01:16:26;4.80;99.90
50544;DHT22;41176;44.032;20.900;2022-12-18T01:18:53;4.80;99.90
50544;DHT22;41176;44.032;20.900;2022-12-18T01:21:21;4.80;99.90
50544;DHT22;41176;44.032;20.900;2022-12-18T01:23:51;4.80;99.90
50544;DHT22;41176;44.032;20.900;2022-12-18T01:26:17;4.80;99.90
50544;DHT22;41176;44.032;20.900;2022-12-18T01:28:43;4.80;99.90
50544;DHT22;41176;44.032;20.900;2022-12-18T01:33:38;4.80;99.90
50544;DHT22;41176;44.032;20.900;2022-12-18T01:36:04;4.80;99.90
50544;DHT22;41176;44.032;20.900;2022-12-18T01:38:30;4.70;99.90
50544;DHT22;41176;44.032;20.900;2022-12-18T01:41:00;4.70;99.90
50544;DHT22;41176;44.032;20.900;2022-12-18T01:43:47;4.70;99.90
50544;DHT22;41176;44.032;20.900;2022-12-18T01:46:13;4.60;99.90
50544;DHT22;41176;44.032;20.900;2022-12-18T01:48:40;4.60;99.90
50544;DHT22;41176;44.032;20.900;2022-12-18T01:51:08;4.60;99.90
50544;DHT22;41176;44.032;20.900;2022-12-18T01:53:36;4.60;99.90
50544;DHT22;41176;44.032;20.900;2022-12-18T01:56:03;4.60;99.90
50544;DHT22;41176;44.032;20.900;2022-12-18T01:58:56;4.60;99.90
50544;DHT22;41176;44.032;20.900;2022-12-18T02:01:24;4.50;99.90
50544;DHT22;41176;44.032;20.900;2022-12-18T02:03:51;4.50;99.90
50544;DHT22;41176;44.032;20.900;2022-12-18T02:06:24;4.50;99.90
50544;DHT22;41176;44.032;20.900;2022-12-18T02:09:21;4.60;99.90
50544;DHT22;41176;44.032;20.900;2022-12-18T02:11:53;4.60;99.90
50544;DHT22;41176;44.032;20.900;2022-12-18T02:17:23;4.40;99.90
50544;DHT22;41176;44.032;20.900;2022-12-18T02:21:04;4.40;99.90
50544;DHT22;41176;44.032;20.900;2022-12-18T02:27:59;4.30;99.90
50544;DHT22;41176;44.032;20.900;2022-12-18T02:30:27;4.40;99.90
50544;DHT22;41176;44.032;20.900;2022-12-18T02:32:56;4.40;99.90
50544;DHT22;41176;44.032;20.900;2022-12-18T02:35:25;4.40;99.90
50544;DHT22;41176;44.032;20.900;2022-12-18T02:37:55;4.40;99.90
50544;DHT22;41176;44.032;20.900;2022-12-18T02:40:23;4.40;99.90
50544;DHT22;41176;44.032;20.900;2022-12-18T02:42:49;4.30;99.90
50544;DHT22;41176;44.032;20.900;2022-12-18T02:45:15;4.40;99.90
50544;DHT22;41176;44.032;20.900;2022-12-18T02:47:44;4.40;99.90
50544;DHT22;41176;44.032;20.900;2022-12-18T02:50:30;4.40;99.90
50544;DHT22;41176;44.032;20.900;2022-12-18T02:53:03;4.40;99.90
50544;DHT22;41176;44.032;20.900;2022-12-18T02:55:51;4.40;99.90
50544;DHT22;41176;44.032;20.900;2022-12-18T02:58:58;4.40;99.90
50544;DHT22;41176;44.032;20.900;2022-12-18T03:01:43;4.40;99.90
50544;DHT22;41176;44.032;20.900;2022-12-18T03:04:38;4.40;99.90
50544;DHT22;41176;44.032;20.900;2022-12-18T03:07:05;4.30;99.90
50544;DHT22;41176;44.032;20.900;2022-12-18T03:09:39;4.40;99.90
50544;DHT22;41176;44.032;20.900;2022-12-18T03:12:11;4.40;99.90
50544;DHT22;41176;44.032;20.900;2022-12-18T03:15:18;4.40;99.90
50544;DHT22;41176;44.032;20.900;2022-12-18T03:17:49;4.30;99.90
50544;DHT22;41176;44.032;20.900;2022-12-18T03:20:20;4.30;99.90
50544;DHT22;41176;44.032;20.900;2022-12-18T03:22:51;4.30;99.90
50544;DHT22;41176;44.032;20.900;2022-12-18T03:25:19;4.30;99.90
50544;DHT22;41176;44.032;20.900;2022-12-18T03:27:51;4.30;99.90
50544;DHT22;41176;44.032;20.900;2022-12-18T03:30:17;4.30;99.90
50544;DHT22;41176;44.032;20.900;2022-12-18T03:32:56;4.30;99.90
50544;DHT22;41176;44.032;20.900;2022-12-18T03:35:33;4.30;99.90
50544;DHT22;41176;44.032;20.900;2022-12-18T03:38:00;4.30;99.90
50544;DHT22;41176;44.032;20.900;2022-12-18T03:40:31;4.30;99.90
50544;DHT22;41176;44.032;20.900;2022-12-18T03:43:09;4.40;99.90
50544;DHT22;41176;44.032;20.900;2022-12-18T03:45:40;4.30;99.90
50544;DHT22;41176;44.032;20.900;2022-12-18T03:48:18;4.30;99.90
50544;DHT22;41176;44.032;20.900;2022-12-18T03:56:11;4.20;99.90
50544;DHT22;41176;44.032;20.900;2022-12-18T03:58:40;4.20;99.90
50544;DHT22;41176;44.032;20.900;2022-12-18T04:01:12;4.30;99.90
50544;DHT22;41176;44.032;20.900;2022-12-18T04:03:39;4.30;99.90
50544;DHT22;41176;44.032;20.900;2022-12-18T04:06:07;4.20;99.90
50544;DHT22;41176;44.032;20.900;2022-12-18T04:08:34;4.30;99.90
50544;DHT22;41176;44.032;20.900;2022-12-18T04:11:01;4.20;99.90
50544;DHT22;41176;44.032;20.900;2022-12-18T04:13:36;4.20;99.90
50544;DHT22;41176;44.032;20.900;2022-12-18T04:16:03;4.20;99.90
50544;DHT22;41176;44.032;20.900;2022-12-18T04:18:29;4.20;99.90
50544;DHT22;41176;44.032;20.900;2022-12-18T04:20:55;4.20;99.90
50544;DHT22;41176;44.032;20.900;2022-12-18T04:23:21;4.20;99.90
50544;DHT22;41176;44.032;20.900;2022-12-18T04:25:49;4.20;99.90
50544;DHT22;41176;44.032;20.900;2022-12-18T04:28:15;4.20;99.90
50544;DHT22;41176;44.032;20.900;2022-12-18T04:30:41;4.20;99.90
50544;DHT22;41176;44.032;20.900;2022-12-18T04:33:11;4.20;99.90
50544;DHT22;41176;44.032;20.900;2022-12-18T04:35:38;4.20;99.90
50544;DHT22;41176;44.032;20.900;2022-12-18T04:38:04;4.20;99.90
50544;DHT22;41176;44.032;20.900;2022-12-18T04:40:30;4.20;99.90
50544;DHT22;41176;44.032;20.900;2022-12-18T04:42:56;4.30;99.90
50544;DHT22;41176;44.032;20.900;2022-12-18T04:45:22;4.20;99.90
50544;DHT22;41176;44.032;20.900;2022-12-18T04:47:47;4.30;99.90
50544;DHT22;41176;44.032;20.900;2022-12-18T04:50:13;4.30;99.90
50544;DHT22;41176;44.032;20.900;2022-12-18T04:52:39;4.30;99.90
50544;DHT22;41176;44.032;20.900;2022-12-18T04:55:05;4.30;99.90
50544;DHT22;41176;44.032;20.900;2022-12-18T04:57:31;4.30;99.90
50544;DHT22;41176;44.032;20.900;2022-12-18T04:59:56;4.30;99.90
50544;DHT22;41176;44.032;20.900;2022-12-18T05:02:22;4.30;99.90
50544;DHT22;41176;44.032;20.900;2022-12-18T05:04:48;4.30;99.90
50544;DHT22;41176;44.032;20.900;2022-12-18T05:07:13;4.30;99.90
50544;DHT22;41176;44.032;20.900;2022-12-18T05:09:40;4.30;99.90
50544;DHT22;41176;44.032;20.900;2022-12-18T05:12:06;4.30;99.90
50544;DHT22;41176;44.032;20.900;2022-12-18T05:14:32;4.30;99.90
50544;DHT22;41176;44.032;20.900;2022-12-18T05:16:57;4.30;99.90
50544;DHT22;41176;44.032;20.900;2022-12-18T05:19:23;4.30;99.90
50544;DHT22;41176;44.032;20.900;2022-12-18T05:21:49;4.30;99.90
50544;DHT22;41176;44.032;20.900;2022-12-18T05:24:14;4.40;99.90
50544;DHT22;41176;44.032;20.900;2022-12-18T05:26:40;4.30;99.90
50544;DHT22;41176;44.032;20.900;2022-12-18T05:29:06;4.30;99.90
50544;DHT22;41176;44.032;20.900;2022-12-18T05:31:32;4.30;99.90
50544;DHT22;41176;44.032;20.900;2022-12-18T05:33:57;4.30;99.90
50544;DHT22;41176;44.032;20.900;2022-12-18T05:36:23;4.30;99.90
50544;DHT22;41176;44.032;20.900;2022-12-18T05:38:49;4.30;99.90
50544;DHT22;41176;44.032;20.900;2022-12-18T05:41:15;4.30;99.90
50544;DHT22;41176;44.032;20.900;2022-12-18T05:43:41;4.30;99.90
50544;DHT22;41176;44.032;20.900;2022-12-18T05:46:11;4.30;99.90
50544;DHT22;41176;44.032;20.900;2022-12-18T05:48:37;4.30;99.90
50544;DHT22;41176;44.032;20.900;2022-12-18T05:51:05;4.30;99.90
50544;DHT22;41176;44.032;20.900;2022-12-18T05:53:31;4.30;99.90
50544;DHT22;41176;44.032;20.900;2022-12-18T05:56:00;4.30;99.90
50544;DHT22;41176;44.032;20.900;2022-12-18T05:58:26;4.30;99.90
50544;DHT22;41176;44.032;20.900;2022-12-18T06:00:52;4.20;99.90
50544;DHT22;41176;44.032;20.900;2022-12-18T06:03:18;4.20;99.90
50544;DHT22;41176;44.032;20.900;2022-12-18T06:05:44;4.20;99.90
50544;DHT22;41176;44.032;20.900;2022-12-18T06:08:11;4.20;99.90
50544;DHT22;41176;44.032;20.900;2022-12-18T06:10:38;4.20;99.90
50544;DHT22;41176;44.032;20.900;2022-12-18T06:13:04;4.20;99.90
50544;DHT22;41176;44.032;20.900;2022-12-18T06:15:31;4.20;99.90
50544;DHT22;41176;44.032;20.900;2022-12-18T06:17:57;4.20;99.90
50544;DHT22;41176;44.032;20.900;2022-12-18T06:20:22;4.20;99.90
50544;DHT22;41176;44.032;20.900;2022-12-18T06:22:48;4.20;99.90
50544;DHT22;41176;44.032;20.900;2022-12-18T06:25:14;4.20;99.90
50544;DHT22;41176;44.032;20.900;2022-12-18T06:27:40;4.30;99.90
50544;DHT22;41176;44.032;20.900;2022-12-18T06:30:06;4.30;99.90
50544;DHT22;41176;44.032;20.900;2022-12-18T06:32:32;4.30;99.90
50544;DHT22;41176;44.032;20.900;2022-12-18T06:34:58;4.30;99.90
50544;DHT22;41176;44.032;20.900;2022-12-18T06:37:23;4.30;99.90
50544;DHT22;41176;44.032;20.900;2022-12-18T06:39:53;4.40;99.90
50544;DHT22;41176;44.032;20.900;2022-12-18T06:42:23;4.30;99.90
50544;DHT22;41176;44.032;20.900;2022-12-18T06:44:49;4.30;99.90
50544;DHT22;41176;44.032;20.900;2022-12-18T06:47:15;4.30;99.90
50544;DHT22;41176;44.032;20.900;2022-12-18T06:49:40;4.30;99.90
50544;DHT22;41176;44.032;20.900;2022-12-18T06:52:06;4.30;99.90
50544;DHT22;41176;44.032;20.900;2022-12-18T06:54:32;4.30;99.90
50544;DHT22;41176;44.032;20.900;2022-12-18T06:56:57;4.30;99.90
50544;DHT22;41176;44.032;20.900;2022-12-18T06:59:23;4.30;99.90
50544;DHT22;41176;44.032;20.900;2022-12-18T07:01:49;4.30;99.90
50544;DHT22;41176;44.032;20.900;2022-12-18T07:04:14;4.30;99.90
50544;DHT22;41176;44.032;20.900;2022-12-18T07:06:40;4.30;99.90
50544;DHT22;41176;44.032;20.900;2022-12-18T07:09:06;4.40;99.90
50544;DHT22;41176;44.032;20.900;2022-12-18T07:11:35;4.40;99.90
50544;DHT22;41176;44.032;20.900;2022-12-18T07:14:00;4.40;99.90
50544;DHT22;41176;44.032;20.900;2022-12-18T07:16:26;4.40;99.90
50544;DHT22;41176;44.032;20.900;2022-12-18T07:18:56;4.40;99.90
50544;DHT22;41176;44.032;20.900;2022-12-18T07:21:24;4.40;99.90
50544;DHT22;41176;44.032;20.900;2022-12-18T07:23:50;4.40;99.90
50544;DHT22;41176;44.032;20.900;2022-12-18T07:26:18;4.40;99.90
50544;DHT22;41176;44.032;20.900;2022-12-18T07:28:44;4.40;99.90
50544;DHT22;41176;44.032;20.900;2022-12-18T07:31:13;4.40;99.90
50544;DHT22;41176;44.032;20.900;2022-12-18T07:33:40;4.40;99.90
50544;DHT22;41176;44.032;20.900;2022-12-18T07:36:07;4.40;99.90
50544;DHT22;41176;44.032;20.900;2022-12-18T07:38:34;4.50;99.90
50544;DHT22;41176;44.032;20.900;2022-12-18T07:41:05;4.50;99.90
50544;DHT22;41176;44.032;20.900;2022-12-18T07:43:32;4.60;99.90
50544;DHT22;41176;44.032;20.900;2022-12-18T07:45:58;4.60;99.90
50544;DHT22;41176;44.032;20.900;2022-12-18T07:48:23;4.60;99.90
50544;DHT22;41176;44.032;20.900;2022-12-18T07:50:49;4.70;99.90
50544;DHT22;41176;44.032;20.900;2022-12-18T07:53:15;4.70;99.90
50544;DHT22;41176;44.032;20.900;2022-12-18T07:55:41;4.70;99.90
50544;DHT22;41176;44.032;20.900;2022-12-18T07:58:08;4.80;99.90
50544;DHT22;41176;44.032;20.900;2022-12-18T08:00:34;4.80;99.90
50544;DHT22;41176;44.032;20.900;2022-12-18T08:03:00;4.90;99.90
50544;DHT22;41176;44.032;20.900;2022-12-18T08:05:27;5.00;99.90
50544;DHT22;41176;44.032;20.900;2022-12-18T08:07:53;5.00;99.90
50544;DHT22;41176;44.032;20.900;2022-12-18T08:10:20;5.10;99.90
50544;DHT22;41176;44.032;20.900;2022-12-18T08:12:48;5.10;99.90
50544;DHT22;41176;44.032;20.900;2022-12-18T08:15:14;5.20;99.90
50544;DHT22;41176;44.032;20.900;2022-12-18T08:17:39;5.20;99.90
50544;DHT22;41176;44.032;20.900;2022-12-18T08:20:06;5.30;99.90
50544;DHT22;41176;44.032;20.900;2022-12-18T08:22:34;5.30;99.90
50544;DHT22;41176;44.032;20.900;2022-12-18T08:25:01;5.30;99.90
50544;DHT22;41176;44.032;20.900;2022-12-18T08:27:27;5.50;99.90
50544;DHT22;41176;44.032;20.900;2022-12-18T08:29:52;5.50;99.90
50544;DHT22;41176;44.032;20.900;2022-12-18T08:32:18;5.60;99.90
50544;DHT22;41176;44.032;20.900;2022-12-18T08:34:44;5.80;99.60
50544;DHT22;41176;44.032;20.900;2022-12-18T08:37:09;6.00;99.90
50544;DHT22;41176;44.032;20.900;2022-12-18T08:39:35;6.20;98.10
50544;DHT22;41176;44.032;20.900;2022-12-18T08:42:01;6.20;98.20
50544;DHT22;41176;44.032;20.900;2022-12-18T08:44:45;6.30;98.30
50544;DHT22;41176;44.032;20.900;2022-12-18T08:47:11;6.30;97.80
50544;DHT22;41176;44.032;20.900;2022-12-18T08:49:37;6.40;96.50
50544;DHT22;41176;44.032;20.900;2022-12-18T08:52:02;6.90;96.90
50544;DHT22;41176;44.032;20.900;2022-12-18T08:54:28;7.50;94.90
50544;DHT22;41176;44.032;20.900;2022-12-18T08:56:54;8.10;93.20
50544;DHT22;41176;44.032;20.900;2022-12-18T08:59:20;8.70;91.10
50544;DHT22;41176;44.032;20.900;2022-12-18T09:01:46;8.90;88.70
50544;DHT22;41176;44.032;20.900;2022-12-18T09:04:12;9.10;85.90
50544;DHT22;41176;44.032;20.900;2022-12-18T09:06:39;9.20;84.40
50544;DHT22;41176;44.032;20.900;2022-12-18T09:09:06;9.50;82.70
50544;DHT22;41176;44.032;20.900;2022-12-18T09:11:32;9.80;80.30
50544;DHT22;41176;44.032;20.900;2022-12-18T09:14:00;10.20;78.70
50544;DHT22;41176;44.032;20.900;2022-12-18T09:16:27;10.60;77.30
50544;DHT22;41176;44.032;20.900;2022-12-18T09:18:54;10.90;75.20
50544;DHT22;41176;44.032;20.900;2022-12-18T09:21:26;11.30;74.80
50544;DHT22;41176;44.032;20.900;2022-12-18T09:23:53;11.70;70.90
50544;DHT22;41176;44.032;20.900;2022-12-18T09:26:20;11.90;69.40
50544;DHT22;41176;44.032;20.900;2022-12-18T09:28:46;12.20;69.10
50544;DHT22;41176;44.032;20.900;2022-12-18T09:31:16;12.50;66.90
50544;DHT22;41176;44.032;20.900;2022-12-18T09:33:43;12.30;65.00
50544;DHT22;41176;44.032;20.900;2022-12-18T09:36:13;11.90;66.00
50544;DHT22;41176;44.032;20.900;2022-12-18T09:38:39;11.10;67.70
50544;DHT22;41176;44.032;20.900;2022-12-18T09:43:55;10.30;69.60
50544;DHT22;41176;44.032;20.900;2022-12-18T09:46:29;10.10;70.10
50544;DHT22;41176;44.032;20.900;2022-12-18T09:48:59;9.90;70.00
50544;DHT22;41176;44.032;20.900;2022-12-18T09:51:50;9.60;71.80
50544;DHT22;41176;44.032;20.900;2022-12-18T09:54:22;9.80;74.70
50544;DHT22;41176;44.032;20.900;2022-12-18T09:56:48;9.90;75.00
50544;DHT22;41176;44.032;20.900;2022-12-18T09:59:24;9.70;76.90
50544;DHT22;41176;44.032;20.900;2022-12-18T10:01:50;9.90;74.80
50544;DHT22;41176;44.032;20.900;2022-12-18T10:04:16;10.00;74.60
50544;DHT22;41176;44.032;20.900;2022-12-18T10:09:37;9.70;75.40
50544;DHT22;41176;44.032;20.900;2022-12-18T10:12:08;9.50;75.70
50544;DHT22;41176;44.032;20.900;2022-12-18T10:17:27;9.10;77.90
50544;DHT22;41176;44.032;20.900;2022-12-18T10:22:54;9.40;77.20
50544;DHT22;41176;44.032;20.900;2022-12-18T10:27:56;9.40;76.80
50544;DHT22;41176;44.032;20.900;2022-12-18T10:30:24;9.70;77.40
50544;DHT22;41176;44.032;20.900;2022-12-18T10:32:50;10.10;77.80
50544;DHT22;41176;44.032;20.900;2022-12-18T10:35:25;10.50;75.60
50544;DHT22;41176;44.032;20.900;2022-12-18T10:38:27;10.90;74.60
50544;DHT22;41176;44.032;20.900;2022-12-18T10:43:31;10.20;74.60
50544;DHT22;41176;44.032;20.900;2022-12-18T10:51:23;8.90;77.40
50544;DHT22;41176;44.032;20.900;2022-12-18T10:53:59;8.70;79.30
50544;DHT22;41176;44.032;20.900;2022-12-18T10:56:27;8.70;79.10
50544;DHT22;41176;44.032;20.900;2022-12-18T10:59:00;8.60;78.50
50544;DHT22;41176;44.032;20.900;2022-12-18T11:01:27;8.70;80.00
50544;DHT22;41176;44.032;20.900;2022-12-18T11:06:21;8.50;80.10
50544;DHT22;41176;44.032;20.900;2022-12-18T11:09:03;8.40;81.00
50544;DHT22;41176;44.032;20.900;2022-12-18T11:11:29;8.90;80.20
50544;DHT22;41176;44.032;20.900;2022-12-18T11:14:03;9.20;78.20
50544;DHT22;41176;44.032;20.900;2022-12-18T11:16:51;9.30;78.80
50544;DHT22;41176;44.032;20.900;2022-12-18T11:19:34;9.20;78.70
50544;DHT22;41176;44.032;20.900;2022-12-18T11:22:02;8.90;79.20
50544;DHT22;41176;44.032;20.900;2022-12-18T11:24:31;8.50;80.60
50544;DHT22;41176;44.032;20.900;2022-12-18T11:27:03;8.40;81.10
50544;DHT22;41176;44.032;20.900;2022-12-18T11:29:34;8.40;81.30
50544;DHT22;41176;44.032;20.900;2022-12-18T11:32:34;8.90;80.00
50544;DHT22;41176;44.032;20.900;2022-12-18T11:35:11;9.80;77.40
50544;DHT22;41176;44.032;20.900;2022-12-18T11:37:40;10.40;74.30
50544;DHT22;41176;44.032;20.900;2022-12-18T11:43:18;10.60;71.40
50544;DHT22;41176;44.032;20.900;2022-12-18T11:45:53;9.90;72.60
50544;DHT22;41176;44.032;20.900;2022-12-18T11:48:27;9.20;73.60
50544;DHT22;41176;44.032;20.900;2022-12-18T11:50:59;8.60;75.30
50544;DHT22;41176;44.032;20.900;2022-12-18T11:53:27;8.30;76.50
50544;DHT22;41176;44.032;20.900;2022-12-18T11:56:17;7.90;76.60
50544;DHT22;41176;44.032;20.900;2022-12-18T12:02:09;7.30;77.80
50544;DHT22;41176;44.032;20.900;2022-12-18T12:08:34;6.70;79.40
50544;DHT22;41176;44.032;20.900;2022-12-18T12:21:49;6.40;82.10
50544;DHT22;41176;44.032;20.900;2022-12-18T12:24:39;6.40;82.60
50544;DHT22;41176;44.032;20.900;2022-12-18T12:29:58;6.40;83.00
50544;DHT22;41176;44.032;20.900;2022-12-18T12:40:23;6.20;83.20
50544;DHT22;41176;44.032;20.900;2022-12-18T12:42:55;6.20;84.20
50544;DHT22;41176;44.032;20.900;2022-12-18T12:45:53;6.10;83.70
50544;DHT22;41176;44.032;20.900;2022-12-18T12:51:07;6.30;84.70
50544;DHT22;41176;44.032;20.900;2022-12-18T12:53:37;6.30;84.00
50544;DHT22;41176;44.032;20.900;2022-12-18T12:56:04;6.30;84.60
50544;DHT22;41176;44.032;20.900;2022-12-18T13:04:02;6.30;84.70
50544;DHT22;41176;44.032;20.900;2022-12-18T13:09:01;6.20;86.50
50544;DHT22;41176;44.032;20.900;2022-12-18T13:11:40;6.10;87.10
50544;DHT22;41176;44.032;20.900;2022-12-18T13:14:37;6.00;87.80
50544;DHT22;41176;44.032;20.900;2022-12-18T13:19:42;5.80;87.50
50544;DHT22;41176;44.032;20.900;2022-12-18T13:22:28;5.80;88.50
50544;DHT22;41176;44.032;20.900;2022-12-18T13:24:54;5.80;88.20
50544;DHT22;41176;44.032;20.900;2022-12-18T13:35:41;5.60;89.90
50544;DHT22;41176;44.032;20.900;2022-12-18T13:48:57;5.50;90.60
50544;DHT22;41176;44.032;20.900;2022-12-18T13:51:24;5.40;90.10
50544;DHT22;41176;44.032;20.900;2022-12-18T13:54:01;5.40;90.30
50544;DHT22;41176;44.032;20.900;2022-12-18T13:56:31;5.30;90.50
50544;DHT22;41176;44.032;20.900;2022-12-18T14:01:57;5.30;90.40
50544;DHT22;41176;44.032;20.900;2022-12-18T14:04:27;5.20;90.90
50544;DHT22;41176;44.032;20.900;2022-12-18T14:06:57;5.10;90.80
50544;DHT22;41176;44.032;20.900;2022-12-18T14:09:26;5.10;90.90
50544;DHT22;41176;44.032;20.900;2022-12-18T14:11:53;5.00;90.50
50544;DHT22;41176;44.032;20.900;2022-12-18T14:14:45;4.90;91.00
50544;DHT22;41176;44.032;20.900;2022-12-18T14:17:13;4.90;91.30
50544;DHT22;41176;44.032;20.900;2022-12-18T14:19:49;4.90;91.30
50544;DHT22;41176;44.032;20.900;2022-12-18T14:22:21;4.90;91.10
50544;DHT22;41176;44.032;20.900;2022-12-18T14:24:51;4.80;91.20
50544;DHT22;41176;44.032;20.900;2022-12-18T14:27:30;4.80;91.60
50544;DHT22;41176;44.032;20.900;2022-12-18T14:29:55;4.70;91.90
50544;DHT22;41176;44.032;20.900;2022-12-18T14:32:21;4.80;91.90
50544;DHT22;41176;44.032;20.900;2022-12-18T14:34:52;4.70;91.50
50544;DHT22;41176;44.032;20.900;2022-12-18T14:37:24;4.70;91.70
50544;DHT22;41176;44.032;20.900;2022-12-18T14:40:16;4.70;91.50
50544;DHT22;41176;44.032;20.900;2022-12-18T14:42:42;4.70;92.00
50544;DHT22;41176;44.032;20.900;2022-12-18T14:47:59;4.60;91.80
50544;DHT22;41176;44.032;20.900;2022-12-18T14:50:25;4.50;92.00
50544;DHT22;41176;44.032;20.900;2022-12-18T14:52:52;4.50;92.10
50544;DHT22;41176;44.032;20.900;2022-12-18T14:55:19;4.40;92.40
50544;DHT22;41176;44.032;20.900;2022-12-18T14:57:50;4.50;92.70
50544;DHT22;41176;44.032;20.900;2022-12-18T15:00:22;4.50;92.80
50544;DHT22;41176;44.032;20.900;2022-12-18T15:02:55;4.40;92.40
50544;DHT22;41176;44.032;20.900;2022-12-18T15:05:26;4.50;92.60
50544;DHT22;41176;44.032;20.900;2022-12-18T15:07:55;4.40;92.70
50544;DHT22;41176;44.032;20.900;2022-12-18T15:10:29;4.40;93.30
50544;DHT22;41176;44.032;20.900;2022-12-18T15:20:44;4.40;93.60
50544;DHT22;41176;44.032;20.900;2022-12-18T15:23:33;4.40;93.40
50544;DHT22;41176;44.032;20.900;2022-12-18T15:26:02;4.30;93.30
50544;DHT22;41176;44.032;20.900;2022-12-18T15:28:35;4.20;93.50
50544;DHT22;41176;44.032;20.900;2022-12-18T15:36:16;4.30;93.40
50544;DHT22;41176;44.032;20.900;2022-12-18T15:38:47;4.30;93.10
50544;DHT22;41176;44.032;20.900;2022-12-18T15:41:18;4.20;93.00
50544;DHT22;41176;44.032;20.900;2022-12-18T15:43:45;4.20;93.70
50544;DHT22;41176;44.032;20.900;2022-12-18T15:46:14;4.20;93.40
50544;DHT22;41176;44.032;20.900;2022-12-18T15:48:45;4.20;93.00
50544;DHT22;41176;44.032;20.900;2022-12-18T15:53:43;4.20;93.30
50544;DHT22;41176;44.032;20.900;2022-12-18T15:56:14;4.10;93.30
50544;DHT22;41176;44.032;20.900;2022-12-18T15:58:59;4.10;93.60
50544;DHT22;41176;44.032;20.900;2022-12-18T16:01:30;4.10;93.60
50544;DHT22;41176;44.032;20.900;2022-12-18T16:03:57;4.10;95.20
50544;DHT22;41176;44.032;20.900;2022-12-18T16:06:23;4.10;97.00
50544;DHT22;41176;44.032;20.900;2022-12-18T16:08:49;4.10;97.80
50544;DHT22;41176;44.032;20.900;2022-12-18T16:11:26;4.10;98.90
50544;DHT22;41176;44.032;20.900;2022-12-18T16:14:19;3.90;99.90
50544;DHT22;41176;44.032;20.900;2022-12-18T16:16:48;3.80;99.90
50544;DHT22;41176;44.032;20.900;2022-12-18T16:19:14;3.80;99.90
50544;DHT22;41176;44.032;20.900;2022-12-18T16:21:40;3.80;99.90
50544;DHT22;41176;44.032;20.900;2022-12-18T16:24:19;3.90;99.90
50544;DHT22;41176;44.032;20.900;2022-12-18T16:26:48;3.90;99.90
50544;DHT22;41176;44.032;20.900;2022-12-18T16:29:14;3.90;99.90
50544;DHT22;41176;44.032;20.900;2022-12-18T16:31:40;3.90;99.90
50544;DHT22;41176;44.032;20.900;2022-12-18T16:36:50;3.80;99.90
50544;DHT22;41176;44.032;20.900;2022-12-18T16:39:17;3.90;99.90
50544;DHT22;41176;44.032;20.900;2022-12-18T16:41:43;3.90;99.90
50544;DHT22;41176;44.032;20.900;2022-12-18T16:44:09;3.80;99.90
50544;DHT22;41176;44.032;20.900;2022-12-18T16:46:36;3.80;99.90
50544;DHT22;41176;44.032;20.900;2022-12-18T16:49:02;3.80;99.90
50544;DHT22;41176;44.032;20.900;2022-12-18T16:51:28;3.90;99.90
50544;DHT22;41176;44.032;20.900;2022-12-18T16:53:55;3.80;99.90
50544;DHT22;41176;44.032;20.900;2022-12-18T16:56:27;3.80;99.90
50544;DHT22;41176;44.032;20.900;2022-12-18T16:58:55;3.80;99.90
50544;DHT22;41176;44.032;20.900;2022-12-18T17:01:22;3.80;99.90
50544;DHT22;41176;44.032;20.900;2022-12-18T17:03:59;3.80;99.90
50544;DHT22;41176;44.032;20.900;2022-12-18T17:06:26;3.90;99.90
50544;DHT22;41176;44.032;20.900;2022-12-18T17:09:03;3.90;99.90
50544;DHT22;41176;44.032;20.900;2022-12-18T17:11:31;3.90;99.90
50544;DHT22;41176;44.032;20.900;2022-12-18T17:13:57;3.90;99.30
50544;DHT22;41176;44.032;20.900;2022-12-18T17:16:24;3.90;99.00
50544;DHT22;41176;44.032;20.900;2022-12-18T17:18:51;3.90;98.80
50544;DHT22;41176;44.032;20.900;2022-12-18T17:21:18;3.90;98.90
50544;DHT22;41176;44.032;20.900;2022-12-18T17:23:43;3.80;97.80
50544;DHT22;41176;44.032;20.900;2022-12-18T17:26:10;3.70;97.40
50544;DHT22;41176;44.032;20.900;2022-12-18T17:28:37;3.60;96.60
50544;DHT22;41176;44.032;20.900;2022-12-18T17:31:19;3.60;96.30
50544;DHT22;41176;44.032;20.900;2022-12-18T17:33:45;3.60;95.90
50544;DHT22;41176;44.032;20.900;2022-12-18T17:36:12;3.60;95.70
50544;DHT22;41176;44.032;20.900;2022-12-18T17:38:38;3.50;95.90
50544;DHT22;41176;44.032;20.900;2022-12-18T17:41:05;3.60;95.50
50544;DHT22;41176;44.032;20.900;2022-12-18T17:43:32;3.60;95.40
50544;DHT22;41176;44.032;20.900;2022-12-18T17:46:04;3.30;95.50
50544;DHT22;41176;44.032;20.900;2022-12-18T17:48:31;3.30;95.90
50544;DHT22;41176;44.032;20.900;2022-12-18T17:51:01;3.30;95.60
50544;DHT22;41176;44.032;20.900;2022-12-18T17:53:28;3.40;96.00